createdAt,value
2022-07-30T00:02:13.315Z,22.78
2022-07-30T00:04:41.341Z,22.73
2022-07-30T00:07:09.624Z,22.86
2022-07-30T00:09:37.493Z,22.59
2022-07-30T00:12:08.271Z,23.10
2022-07-30T00:14:37.018Z,22.55
2022-07-30T00:17:06.301Z,22.54
2022-07-30T00:19:35.538Z,22.50
2022-07-30T00:22:04.031Z,23.23
2022-07-30T00:24:31.991Z,22.78
2022-07-30T00:27:00.194Z,22.46
2022-07-30T00:29:30.846Z,22.77
2022-07-30T00:31:58.801Z,22.58
2022-07-30T00:34:26.848Z,22.61
2022-07-30T00:36:54.859Z,22.55
2022-07-30T00:39:22.849Z,22.35
2022-07-30T00:42:03.101Z,22.06
2022-07-30T00:44:32.537Z,22.71
2022-07-30T00:47:00.890Z,22.07
2022-07-30T00:49:29.128Z,21.78
2022-07-30T00:51:57.357Z,21.87
2022-07-30T00:54:25.406Z,21.87
2022-07-30T00:56:53.598Z,21.83
2022-07-30T00:59:22.231Z,21.71
2022-07-30T01:01:52.205Z,22.03
2022-07-30T01:04:20.155Z,22.02
2022-07-30T01:06:48.173Z,22.27
2022-07-30T01:09:16.183Z,22.65
2022-07-30T01:11:44.849Z,22.16
2022-07-30T01:14:13.568Z,21.91
2022-07-30T01:16:43.914Z,21.78
2022-07-30T01:19:40.241Z,22.11
2022-07-30T01:22:35.602Z,21.78
2022-07-30T01:25:15.168Z,22.14
2022-07-30T01:27:49.710Z,21.83
2022-07-30T01:30:24.292Z,21.54
2022-07-30T01:32:55.427Z,21.82
2022-07-30T01:35:26.624Z,22.17
2022-07-30T01:37:57.329Z,21.72
2022-07-30T01:40:28.843Z,21.84
2022-07-30T01:43:01.577Z,21.67
2022-07-30T01:45:35.702Z,21.74
2022-07-30T01:48:13.243Z,21.49
2022-07-30T01:50:46.700Z,21.61
2022-07-30T01:53:18.890Z,21.30
2022-07-30T01:55:48.456Z,21.46
2022-07-30T01:58:22.215Z,21.52
2022-07-30T02:00:52.393Z,21.22
2022-07-30T02:03:21.984Z,21.10
2022-07-30T02:05:56.996Z,21.22
2022-07-30T02:08:37.420Z,21.25
2022-07-30T02:11:09.510Z,21.44
2022-07-30T02:13:48.766Z,21.18
2022-07-30T02:16:23.694Z,20.99
2022-07-30T02:19:04.365Z,21.18
2022-07-30T02:21:41.341Z,21.24
2022-07-30T02:24:25.390Z,20.67
2022-07-30T02:27:00.940Z,21.26
2022-07-30T02:29:34.262Z,21.46
2022-07-30T02:32:06.722Z,21.96
2022-07-30T02:34:39.939Z,21.19
2022-07-30T02:37:11.427Z,21.05
2022-07-30T02:39:42.845Z,20.70
2022-07-30T02:42:13.902Z,20.99
2022-07-30T02:44:45.822Z,20.84
2022-07-30T02:47:16.490Z,21.09
2022-07-30T02:49:48.256Z,21.28
2022-07-30T02:52:19.602Z,21.08
2022-07-30T02:54:51.500Z,20.81
2022-07-30T02:57:22.459Z,20.81
2022-07-30T02:59:55.264Z,20.98
2022-07-30T03:02:25.886Z,20.81
2022-07-30T03:05:00.897Z,20.85
2022-07-30T03:07:30.702Z,21.31
2022-07-30T03:10:02.031Z,21.45
2022-07-30T03:12:32.839Z,21.41
2022-07-30T03:15:02.367Z,21.66
2022-07-30T03:17:38.537Z,21.12
2022-07-30T03:20:12.134Z,21.82
2022-07-30T03:22:47.090Z,21.42
2022-07-30T03:25:20.120Z,21.70
2022-07-30T03:27:50.118Z,21.27
2022-07-30T03:30:19.939Z,21.30
2022-07-30T03:32:48.997Z,21.39
2022-07-30T03:35:18.221Z,21.67
2022-07-30T03:37:50.531Z,21.67
2022-07-30T03:40:19.582Z,21.61
2022-07-30T03:42:48.267Z,21.50
2022-07-30T03:45:18.160Z,21.19
2022-07-30T03:47:49.057Z,21.03
2022-07-30T03:50:17.435Z,20.93
2022-07-30T03:52:46.362Z,21.51
2022-07-30T03:55:15.043Z,21.88
2022-07-30T03:57:43.211Z,22.43
2022-07-30T04:00:17.223Z,22.45
2022-07-30T04:02:47.743Z,22.72
2022-07-30T04:05:17.434Z,22.70
2022-07-30T04:07:45.661Z,22.49
2022-07-30T04:10:16.439Z,22.76
2022-07-30T04:12:44.535Z,22.42
2022-07-30T04:16:16.700Z,21.97
2022-07-30T04:18:05.492Z,22.46
2022-07-30T04:20:42.787Z,22.36
2022-07-30T04:23:12.293Z,21.90
2022-07-30T04:25:41.768Z,22.03
2022-07-30T04:28:12.811Z,22.04
2022-07-30T04:30:42.500Z,21.96
2022-07-30T04:33:11.951Z,22.21
2022-07-30T04:35:51.538Z,21.75
2022-07-30T04:38:21.497Z,21.53
2022-07-30T04:40:50.284Z,21.82
2022-07-30T04:43:18.492Z,21.95
2022-07-30T04:45:46.798Z,21.80
2022-07-30T04:48:16.171Z,21.31
2022-07-30T04:50:50.018Z,21.43
2022-07-30T04:53:19.703Z,21.59
2022-07-30T04:55:50.437Z,21.31
2022-07-30T04:58:22.093Z,21.91
2022-07-30T05:00:52.259Z,21.23
2022-07-30T05:03:24.576Z,21.58
2022-07-30T05:05:57.477Z,21.23
2022-07-30T05:08:26.691Z,21.01
2022-07-30T05:10:55.344Z,20.78
2022-07-30T05:13:23.507Z,21.48
2022-07-30T05:16:02.961Z,20.88
2022-07-30T05:18:32.452Z,21.12
2022-07-30T05:21:00.314Z,20.81
2022-07-30T05:23:28.328Z,21.45
2022-07-30T05:25:56.472Z,21.52
2022-07-30T05:28:26.651Z,21.27
2022-07-30T05:30:55.782Z,22.08
2022-07-30T05:33:38.787Z,22.49
2022-07-30T05:36:11.704Z,22.23
2022-07-30T05:38:39.773Z,22.52
2022-07-30T05:41:31.720Z,22.37
2022-07-30T05:43:56.254Z,22.28
2022-07-30T05:46:25.135Z,22.19
2022-07-30T05:48:53.551Z,22.82
2022-07-30T05:51:23.052Z,22.37
2022-07-30T05:53:51.827Z,22.07
2022-07-30T05:56:19.953Z,22.72
2022-07-30T05:58:47.912Z,22.47
2022-07-30T06:01:15.862Z,22.96
2022-07-30T06:03:43.796Z,22.35
2022-07-30T06:06:11.755Z,23.00
2022-07-30T06:08:40.987Z,22.74
2022-07-30T06:11:09.848Z,23.01
2022-07-30T06:13:38.401Z,23.02
2022-07-30T06:16:06.796Z,22.12
2022-07-30T06:18:34.786Z,22.17
2022-07-30T06:21:02.790Z,22.73
2022-07-30T06:23:30.681Z,22.77
2022-07-30T06:26:00.013Z,22.43
2022-07-30T06:28:37.693Z,23.34
2022-07-30T06:31:06.674Z,23.21
2022-07-30T06:33:35.308Z,22.95
2022-07-30T06:36:03.366Z,23.62
2022-07-30T06:38:31.736Z,22.86
2022-07-30T06:41:02.811Z,22.91
2022-07-30T06:43:32.459Z,23.08
2022-07-30T06:46:00.784Z,23.13
2022-07-30T06:48:30.945Z,23.26
2022-07-30T06:50:58.913Z,23.60
2022-07-30T06:53:26.988Z,23.75
2022-07-30T06:56:00.249Z,23.37
2022-07-30T06:58:30.259Z,23.22
2022-07-30T07:00:58.301Z,23.67
2022-07-30T07:03:39.675Z,23.76
2022-07-30T07:06:09.121Z,23.37
2022-07-30T07:08:38.291Z,23.35
2022-07-30T07:11:06.186Z,23.14
2022-07-30T07:13:35.496Z,23.38
2022-07-30T07:16:04.178Z,23.57
2022-07-30T07:18:32.520Z,23.89
2022-07-30T07:21:00.621Z,24.06
2022-07-30T07:23:41.823Z,23.02
2022-07-30T07:26:11.649Z,23.29
2022-07-30T07:28:41.346Z,23.38
2022-07-30T07:31:10.202Z,23.85
2022-07-30T07:33:39.479Z,23.97
2022-07-30T07:36:08.013Z,22.85
2022-07-30T07:38:36.800Z,22.75
2022-07-30T07:41:05.404Z,23.26
2022-07-30T07:43:33.775Z,24.11
2022-07-30T07:46:03.082Z,24.20
2022-07-30T07:48:31.387Z,23.13
2022-07-30T07:51:00.484Z,23.47
2022-07-30T07:53:29.062Z,22.88
2022-07-30T07:55:57.447Z,23.53
2022-07-30T07:58:26.611Z,23.90
2022-07-30T08:00:55.545Z,23.94
2022-07-30T08:03:24.944Z,23.24
2022-07-30T08:05:58.153Z,23.41
2022-07-30T08:08:36.628Z,23.66
2022-07-30T08:11:06.553Z,24.13
2022-07-30T08:13:49.061Z,24.41
2022-07-30T08:16:20.462Z,24.56
2022-07-30T08:18:50.084Z,24.61
2022-07-30T08:21:18.169Z,24.75
2022-07-30T08:23:46.279Z,24.32
2022-07-30T08:26:14.292Z,24.30
2022-07-30T08:28:43.103Z,24.30
2022-07-30T08:31:11.225Z,25.11
2022-07-30T08:33:39.019Z,25.10
2022-07-30T08:36:09.857Z,24.66
2022-07-30T08:38:39.248Z,24.32
2022-07-30T08:41:07.639Z,24.75
2022-07-30T08:43:37.628Z,25.23
2022-07-30T08:46:11.023Z,24.68
2022-07-30T08:48:39.481Z,24.79
2022-07-30T08:51:09.910Z,24.94
2022-07-30T08:53:38.022Z,24.63
2022-07-30T08:56:08.582Z,25.16
2022-07-30T08:58:36.563Z,25.18
2022-07-30T09:01:06.849Z,24.10
2022-07-30T09:03:36.512Z,24.11
2022-07-30T09:06:13.637Z,24.30
2022-07-30T09:08:41.775Z,25.15
2022-07-30T09:11:09.851Z,25.18
2022-07-30T09:13:41.690Z,25.15
2022-07-30T09:16:21.809Z,24.67
2022-07-30T09:18:50.885Z,24.91
2022-07-30T09:21:24.154Z,23.92
2022-07-30T09:24:00.513Z,24.47
2022-07-30T09:26:29.649Z,24.83
2022-07-30T09:29:16.499Z,25.10
2022-07-30T09:31:55.820Z,25.35
2022-07-30T09:34:32.849Z,25.05
2022-07-30T09:37:05.243Z,25.56
2022-07-30T09:39:35.554Z,25.89
2022-07-30T09:42:05.772Z,24.74
2022-07-30T09:44:34.066Z,25.64
2022-07-30T09:47:02.887Z,26.11
2022-07-30T09:49:31.604Z,26.13
2022-07-30T09:52:01.113Z,26.05
2022-07-30T09:54:51.580Z,25.24
2022-07-30T09:57:26.010Z,25.27
2022-07-30T09:59:57.549Z,25.54
2022-07-30T10:02:35.389Z,25.21
2022-07-30T10:05:19.133Z,24.70
2022-07-30T10:07:56.329Z,25.04
2022-07-30T10:10:27.638Z,25.74
2022-07-30T10:13:01.104Z,25.53
2022-07-30T10:15:35.672Z,25.34
2022-07-30T10:18:06.692Z,25.48
2022-07-30T10:20:37.648Z,25.68
2022-07-30T10:23:10.876Z,25.06
2022-07-30T10:25:49.071Z,25.53
2022-07-30T10:28:22.943Z,25.36
2022-07-30T10:30:53.350Z,26.08
2022-07-30T10:33:36.334Z,26.00
2022-07-30T10:36:12.079Z,25.14
2022-07-30T10:38:44.764Z,25.45
2022-07-30T10:41:42.829Z,26.29
2022-07-30T10:44:51.814Z,26.12
2022-07-30T10:47:23.704Z,25.55
2022-07-30T10:50:11.577Z,25.73
2022-07-30T10:52:52.050Z,25.61
2022-07-30T10:55:32.865Z,26.02
2022-07-30T10:58:09.870Z,26.69
2022-07-30T11:01:01.569Z,26.67
2022-07-30T11:03:41.558Z,25.58
2022-07-30T11:06:29.647Z,26.42
2022-07-30T11:08:58.162Z,25.59
2022-07-30T11:12:01.161Z,25.86
2022-07-30T11:14:58.373Z,26.56
2022-07-30T11:18:01.002Z,26.84
2022-07-30T11:20:29.685Z,26.70
2022-07-30T11:23:26.255Z,26.19
2022-07-30T11:25:55.024Z,26.61
2022-07-30T11:28:40.375Z,26.87
2022-07-30T11:31:37.218Z,27.36
2022-07-30T11:34:30.739Z,26.31
2022-07-30T11:37:18.534Z,27.36
2022-07-30T11:40:11.378Z,27.26
2022-07-30T11:42:43.518Z,27.24
2022-07-30T11:45:27.031Z,28.05
2022-07-30T11:48:00.207Z,27.70
2022-07-30T11:50:32.281Z,27.06
2022-07-30T11:53:03.209Z,27.30
2022-07-30T11:55:33.599Z,27.30
2022-07-30T11:58:04.345Z,27.38
2022-07-30T12:00:40.643Z,26.55
2022-07-30T12:03:11.749Z,26.44
2022-07-30T12:05:40.473Z,27.13
2022-07-30T12:08:08.709Z,26.41
2022-07-30T12:10:59.700Z,26.30
2022-07-30T12:13:44.527Z,26.57
2022-07-30T12:16:18.009Z,26.80
2022-07-30T12:18:47.313Z,27.01
2022-07-30T12:21:16.784Z,26.84
2022-07-30T12:23:55.034Z,27.10
2022-07-30T12:26:24.658Z,26.84
2022-07-30T12:28:56.151Z,27.26
2022-07-30T12:31:26.407Z,27.03
2022-07-30T12:33:56.309Z,27.54
2022-07-30T12:36:31.269Z,26.99
2022-07-30T12:39:00.460Z,26.88
2022-07-30T12:41:47.128Z,27.23
2022-07-30T12:44:38.304Z,26.90
2022-07-30T12:47:20.801Z,27.58
2022-07-30T12:49:50.317Z,27.43
2022-07-30T12:52:28.272Z,27.99
2022-07-30T12:55:08.721Z,26.92
2022-07-30T12:57:54.830Z,27.67
2022-07-30T13:00:24.075Z,26.45
2022-07-30T13:02:53.552Z,26.84
2022-07-30T13:05:22.021Z,26.70
2022-07-30T13:07:59.134Z,26.80
2022-07-30T13:10:31.133Z,26.67
2022-07-30T13:12:59.762Z,26.70
2022-07-30T13:15:27.946Z,27.17
2022-07-30T13:17:57.181Z,26.54
2022-07-30T13:20:25.058Z,26.84
2022-07-30T13:22:52.883Z,26.47
2022-07-30T13:25:20.773Z,27.00
2022-07-30T13:27:49.051Z,27.19
2022-07-30T13:30:16.902Z,27.94
2022-07-30T13:32:44.744Z,27.93
2022-07-30T13:35:13.918Z,28.27
2022-07-30T13:37:41.790Z,27.22
2022-07-30T13:40:11.453Z,27.09
2022-07-30T13:42:39.316Z,27.12
2022-07-30T13:45:09.654Z,27.09
2022-07-30T13:47:37.634Z,26.93
2022-07-30T13:50:06.792Z,27.84
2022-07-30T13:52:36.067Z,27.70
2022-07-30T13:55:03.944Z,28.49
2022-07-30T13:57:31.784Z,28.60
2022-07-30T13:59:59.571Z,29.07
2022-07-30T14:02:27.901Z,28.22
2022-07-30T14:04:55.992Z,28.08
2022-07-30T14:07:24.002Z,27.08
2022-07-30T14:09:54.632Z,26.55
2022-07-30T14:12:22.672Z,26.45
2022-07-30T14:14:50.514Z,26.34
2022-07-30T14:17:18.490Z,27.15
2022-07-30T14:19:47.146Z,27.63
2022-07-30T14:22:15.059Z,27.95
2022-07-30T14:24:42.970Z,27.93
2022-07-30T14:27:12.128Z,26.91
2022-07-30T14:29:40.083Z,27.07
2022-07-30T14:32:08.021Z,26.92
2022-07-30T14:34:35.941Z,27.20
2022-07-30T14:37:04.290Z,27.62
2022-07-30T14:39:32.548Z,26.93
2022-07-30T14:42:00.398Z,27.77
2022-07-30T14:44:29.603Z,27.87
2022-07-30T14:46:57.469Z,27.38
2022-07-30T14:49:25.449Z,27.21
2022-07-30T14:51:53.775Z,26.86
2022-07-30T14:54:22.345Z,26.58
2022-07-30T14:56:54.887Z,26.96
2022-07-30T14:59:26.546Z,28.08
2022-07-30T15:01:56.096Z,27.81
2022-07-30T15:04:24.242Z,26.77
2022-07-30T15:06:52.120Z,26.13
2022-07-30T15:09:20.709Z,26.92
2022-07-30T15:12:07.972Z,27.22
2022-07-30T15:14:39.987Z,27.44
2022-07-30T15:17:09.732Z,27.09
2022-07-30T15:19:37.565Z,26.97
2022-07-30T15:22:18.258Z,27.72
2022-07-30T15:24:46.079Z,28.27
2022-07-30T15:27:14.087Z,28.22
2022-07-30T15:29:41.949Z,28.16
2022-07-30T15:32:11.241Z,27.05
2022-07-30T15:34:39.219Z,26.49
2022-07-30T15:37:07.146Z,26.69
2022-07-30T15:39:35.853Z,26.48
2022-07-30T15:42:06.146Z,26.39
2022-07-30T15:44:35.197Z,26.04
2022-07-30T15:47:03.025Z,26.37
2022-07-30T15:49:32.311Z,26.65
2022-07-30T15:52:01.797Z,26.48
2022-07-30T15:54:29.868Z,26.78
2022-07-30T15:57:01.089Z,27.29
2022-07-30T15:59:29.989Z,26.41
2022-07-30T16:01:58.945Z,26.66
2022-07-30T16:04:31.325Z,26.79
2022-07-30T16:07:01.649Z,26.78
2022-07-30T16:09:29.797Z,27.46
2022-07-30T16:11:58.278Z,27.47
2022-07-30T16:14:27.049Z,27.09
2022-07-30T16:16:54.989Z,26.93
2022-07-30T16:19:23.013Z,26.80
2022-07-30T16:21:50.997Z,26.25
2022-07-30T16:24:20.398Z,26.80
2022-07-30T16:26:48.327Z,26.93
2022-07-30T16:29:16.199Z,27.40
2022-07-30T16:31:44.196Z,26.91
2022-07-30T16:34:12.224Z,27.00
2022-07-30T16:36:40.119Z,27.17
2022-07-30T16:39:08.233Z,26.70
2022-07-30T16:41:38.356Z,26.90
2022-07-30T16:44:06.537Z,26.55
2022-07-30T16:46:34.425Z,26.76
2022-07-30T16:49:02.388Z,26.28
2022-07-30T16:51:30.682Z,26.75
2022-07-30T16:53:58.541Z,27.31
2022-07-30T16:56:26.508Z,26.85
2022-07-30T16:58:55.717Z,26.69
2022-07-30T17:01:23.720Z,27.61
2022-07-30T17:03:51.624Z,28.00
2022-07-30T17:06:19.654Z,27.26
2022-07-30T17:08:47.634Z,27.13
2022-07-30T17:11:47.426Z,27.38
2022-07-30T17:14:06.400Z,27.55
2022-07-30T17:16:34.305Z,27.21
2022-07-30T17:19:09.247Z,27.54
2022-07-30T17:21:38.949Z,27.20
2022-07-30T17:24:11.305Z,27.56
2022-07-30T17:26:42.807Z,27.44
2022-07-30T17:29:14.667Z,27.11
2022-07-30T17:31:44.509Z,26.46
2022-07-30T17:34:14.545Z,26.65
2022-07-30T17:36:52.662Z,27.41
2022-07-30T17:40:26.985Z,26.38
2022-07-30T17:42:10.717Z,26.64
2022-07-30T17:44:42.034Z,26.90
2022-07-30T17:47:15.169Z,26.73
2022-07-30T17:49:44.886Z,26.29
2022-07-30T17:52:13.059Z,25.64
2022-07-30T17:54:41.273Z,25.94
2022-07-30T17:57:10.345Z,26.57
2022-07-30T17:59:38.365Z,26.03
2022-07-30T18:02:08.184Z,26.71
2022-07-30T18:04:36.593Z,26.87
2022-07-30T18:07:05.263Z,26.01
2022-07-30T18:09:39.269Z,26.63
2022-07-30T18:12:09.490Z,26.00
2022-07-30T18:14:38.685Z,26.16
2022-07-30T18:17:12.439Z,26.42
2022-07-30T18:19:42.246Z,26.10
2022-07-30T18:22:10.431Z,25.87
2022-07-30T18:24:43.961Z,25.94
2022-07-30T18:27:13.006Z,26.51
2022-07-30T18:29:41.209Z,26.07
2022-07-30T18:32:11.959Z,26.44
2022-07-30T18:34:42.925Z,26.09
2022-07-30T18:37:10.997Z,26.15
2022-07-30T18:39:38.899Z,26.38
2022-07-30T18:42:07.912Z,26.25
2022-07-30T18:44:36.370Z,25.69
2022-07-30T18:47:04.453Z,25.93
2022-07-30T18:49:37.055Z,25.86
2022-07-30T18:52:08.011Z,25.49
2022-07-30T18:54:38.687Z,26.24
2022-07-30T18:57:11.261Z,25.98
2022-07-30T18:59:40.640Z,26.00
2022-07-30T19:02:08.460Z,25.46
2022-07-30T19:04:37.874Z,25.99
2022-07-30T19:07:07.173Z,25.92
2022-07-30T19:09:35.568Z,26.22
2022-07-30T19:12:03.981Z,25.45
2022-07-30T19:14:32.203Z,25.42
2022-07-30T19:17:00.187Z,25.92
2022-07-30T19:19:28.915Z,25.85
2022-07-30T19:21:59.101Z,26.32
2022-07-30T19:24:28.892Z,26.51
2022-07-30T19:26:57.999Z,26.02
2022-07-30T19:29:26.083Z,26.28
2022-07-30T19:31:55.068Z,26.06
2022-07-30T19:34:23.263Z,25.99
2022-07-30T19:36:51.820Z,26.14
2022-07-30T19:39:22.105Z,26.43
2022-07-30T19:41:50.953Z,26.50
2022-07-30T19:44:19.428Z,26.29
2022-07-30T19:46:48.659Z,26.27
2022-07-30T19:49:19.837Z,25.49
2022-07-30T19:52:10.584Z,26.25
2022-07-30T19:54:41.505Z,26.07
2022-07-30T19:57:09.522Z,26.03
2022-07-30T19:59:46.152Z,26.29
2022-07-30T20:02:27.156Z,26.30
2022-07-30T20:04:55.889Z,25.93
2022-07-30T20:07:27.569Z,26.05
2022-07-30T20:09:57.119Z,26.01
2022-07-30T20:12:25.209Z,25.92
2022-07-30T20:14:54.601Z,26.01
2022-07-30T20:17:23.776Z,25.84
2022-07-30T20:19:57.962Z,25.85
2022-07-30T20:22:28.939Z,25.67
2022-07-30T20:25:07.986Z,25.46
2022-07-30T20:30:26.012Z,25.39
2022-07-30T20:32:54.203Z,25.43
2022-07-30T20:35:26.213Z,25.37
2022-07-30T20:37:56.310Z,25.40
2022-07-30T20:40:27.138Z,25.45
2022-07-30T20:43:00.028Z,25.38
2022-07-30T20:45:40.267Z,25.40
2022-07-30T20:48:17.469Z,25.37
2022-07-30T20:50:53.622Z,25.38
2022-07-30T20:53:23.425Z,25.38
2022-07-30T20:55:53.043Z,25.23
2022-07-30T20:58:22.132Z,25.30
2022-07-30T21:00:51.727Z,25.13
2022-07-30T21:03:21.270Z,25.20
2022-07-30T21:05:51.160Z,25.16
2022-07-30T21:08:21.373Z,25.09
2022-07-30T21:10:55.395Z,25.12
2022-07-30T21:13:26.554Z,25.11
2022-07-30T21:16:03.043Z,25.05
2022-07-30T21:18:32.744Z,24.93
2022-07-30T21:21:04.923Z,24.81
2022-07-30T21:23:34.344Z,24.80
2022-07-30T21:26:10.552Z,24.68
2022-07-30T21:28:43.915Z,24.67
2022-07-30T21:31:11.964Z,24.61
2022-07-30T21:33:42.480Z,24.61
2022-07-30T21:36:11.142Z,24.56
2022-07-30T21:38:41.861Z,24.58
2022-07-30T21:41:14.507Z,24.43
2022-07-30T21:43:44.575Z,24.55
2022-07-30T21:46:13.086Z,24.43
2022-07-30T21:48:43.389Z,24.40
2022-07-30T21:51:13.033Z,24.38
2022-07-30T21:53:44.914Z,24.27
2022-07-30T21:56:16.784Z,24.31
2022-07-30T21:58:45.569Z,24.26
2022-07-30T22:01:21.720Z,24.29
2022-07-30T22:04:03.414Z,24.18
2022-07-30T22:06:41.235Z,24.11
2022-07-30T22:09:19.565Z,24.10
2022-07-30T22:12:02.272Z,23.95
2022-07-30T22:14:37.591Z,24.00
2022-07-30T22:17:05.956Z,23.95
2022-07-30T22:19:51.471Z,24.05
2022-07-30T22:22:26.353Z,24.03
2022-07-30T22:24:57.313Z,23.89
2022-07-30T22:27:39.534Z,23.81
2022-07-30T22:30:13.868Z,23.82
2022-07-30T22:32:42.874Z,23.76
2022-07-30T22:35:11.988Z,23.77
2022-07-30T22:37:44.635Z,23.85
2022-07-30T22:40:14.149Z,23.78
2022-07-30T22:42:46.669Z,23.84
2022-07-30T22:45:46.569Z,23.69
2022-07-30T22:48:10.046Z,23.72
2022-07-30T22:50:39.745Z,23.66
2022-07-30T22:54:03.026Z,23.52
2022-07-30T22:55:56.092Z,23.61
2022-07-30T22:58:26.376Z,23.50
2022-07-30T23:00:55.410Z,23.64
2022-07-30T23:03:23.451Z,23.43
2022-07-30T23:05:56.798Z,23.52
2022-07-30T23:08:30.263Z,23.52
2022-07-30T23:11:00.170Z,23.18
2022-07-30T23:12:18.909Z,25.55
2022-07-30T23:13:29.966Z,23.31
2022-07-30T23:15:57.998Z,23.57
2022-07-30T23:18:26.157Z,23.49
2022-07-30T23:20:58.508Z,23.89
2022-07-30T23:23:30.883Z,24.27
2022-07-30T23:26:02.276Z,23.95
2022-07-30T23:28:31.672Z,23.73
2022-07-30T23:31:00.199Z,23.49
2022-07-30T23:33:28.387Z,23.42
2022-07-30T23:35:56.667Z,23.41
2022-07-30T23:38:25.289Z,23.39
2022-07-30T23:40:53.306Z,23.47
2022-07-30T23:43:21.309Z,23.53
2022-07-30T23:45:50.590Z,23.51
2022-07-30T23:48:18.570Z,23.36
2022-07-30T23:50:46.560Z,23.37
2022-07-30T23:53:14.874Z,23.31
2022-07-30T23:55:42.953Z,23.37
2022-07-30T23:58:10.999Z,23.19
